Terminal Aerodrome Forecast
Issued by NWS

Home | Current Version | Previous Version | Graphics & Text | Print | Product List | Glossary On
Versions: 1 2 3 4 5 6 7 8 9 10 11 12 13 14 15 16 17 18 19 20 21 22 23 24 25 26 27 28 29 30 31 32 33 34 35 36 37 38 39 40 41 42 43 44 45 46 47 48 49 50
000
FTUS43 KGRB 121735
TAFRHI
TAF
KRHI 121735Z 1218/1318 32008G14KT P6SM SCT025
      TEMPO 1218/1220 -SN BKN022
     FM122100 26005KT P6SM FEW020 BKN100
     FM130300 29004KT P6SM BKN090
     FM130700 00000KT P6SM OVC025
     FM130800 00000KT P6SM -SN BKN015
     FM131000 15004KT 2SM -SN OVC010=

USA.gov is the U.S. government's official web portal to all federal, state and local government web resources and services.